DLH6RL EPGD-EDDF
Flight info
| Callsign | DLH6RL |
|---|---|
| Flight time | 1h 17m |
| Altitude | 34000 |
| Route | DEXIR T671 VEKON L730 UNVOX DCT ALUKA DCT KOSIX DCT NIMAB T171 LASTO T178 KERAX KERAX5A |
| Aircraft | A321/M-SDE2E3FGIJ1LORWXYZ/HB1 |
Departure
| Time | 2026-05-04 06:55 |
|---|---|
| Airport | Gdańsk Lech Wałęsa Airport (EPGD) |
Arrival
| Time | 2026-05-04 08:12 |
|---|---|
| Airport | Frankfurt Main Airport (EDDF) |
| Time | Latitude | Longitude | Altitude | Speed | Heading |
|---|---|---|---|---|---|
| 2026-05-04 06:26 | 54.38161 | 18.46441 | 492 ft | 0 kts | 22° |
| 2026-05-04 06:44 | 54.38158 | 18.46439 | 492 ft | 2 kts | 22° |
| 2026-05-04 06:45 | 54.38144 | 18.46427 | 492 ft | 2 kts | 42° |
| 2026-05-04 06:45 | 54.38135 | 18.46408 | 492 ft | 2 kts | 61° |
| 2026-05-04 06:45 | 54.38129 | 18.46384 | 492 ft | 2 kts | 82° |
| 2026-05-04 06:45 | 54.38130 | 18.46357 | 492 ft | 2 kts | 104° |
| 2026-05-04 06:46 | 54.38132 | 18.46343 | 492 ft | 1 kts | 117° |
| 2026-05-04 06:46 | 54.38134 | 18.46336 | 492 ft | 0 kts | 115° |
| 2026-05-04 06:46 | 54.38134 | 18.46337 | 492 ft | 0 kts | 115° |
| 2026-05-04 06:48 | 54.38133 | 18.46341 | 492 ft | 1 kts | 115° |
| 2026-05-04 06:49 | 54.38110 | 18.46429 | 492 ft | 10 kts | 112° |
| 2026-05-04 06:50 | 54.37861 | 18.46927 | 492 ft | 14 kts | 115° |
| 2026-05-04 06:51 | 54.37808 | 18.47132 | 492 ft | 22 kts | 112° |
| 2026-05-04 06:51 | 54.37750 | 18.47372 | 492 ft | 21 kts | 113° |
| 2026-05-04 06:51 | 54.37693 | 18.47597 | 492 ft | 20 kts | 114° |
| 2026-05-04 06:51 | 54.37640 | 18.47811 | 492 ft | 19 kts | 113° |
| 2026-05-04 06:52 | 54.37589 | 18.48016 | 492 ft | 18 kts | 113° |
| 2026-05-04 06:52 | 54.37541 | 18.48212 | 492 ft | 17 kts | 113° |
| 2026-05-04 06:52 | 54.37495 | 18.48403 | 492 ft | 16 kts | 114° |
| 2026-05-04 06:52 | 54.37449 | 18.48586 | 492 ft | 16 kts | 114° |
| 2026-05-04 06:53 | 54.37405 | 18.48762 | 492 ft | 15 kts | 113° |
| 2026-05-04 06:53 | 54.37362 | 18.48935 | 492 ft | 15 kts | 114° |
| 2026-05-04 06:53 | 54.37323 | 18.49090 | 492 ft | 8 kts | 113° |
| 2026-05-04 06:53 | 54.37280 | 18.49147 | 492 ft | 8 kts | 180° |
| 2026-05-04 06:54 | 54.37221 | 18.49116 | 492 ft | 9 kts | 202° |
| 2026-05-04 06:54 | 54.37171 | 18.49075 | 492 ft | 5 kts | 228° |
| 2026-05-04 06:54 | 54.37166 | 18.49013 | 492 ft | 5 kts | 284° |
| 2026-05-04 06:54 | 54.37185 | 18.48940 | 492 ft | 12 kts | 294° |
| 2026-05-04 06:55 | 54.37301 | 18.48473 | 492 ft | 81 kts | 294° |
| 2026-05-04 06:55 | 54.37618 | 18.47185 | 492 ft | 151 kts | 293° |
| 2026-05-04 06:55 | 54.38079 | 18.45344 | 930 ft | 174 kts | 292° |
| 2026-05-04 06:55 | 54.38543 | 18.43502 | 1737 ft | 171 kts | 292° |
| 2026-05-04 06:56 | 54.39021 | 18.41605 | 2102 ft | 182 kts | 292° |
| 2026-05-04 06:57 | 54.43132 | 18.24492 | 5871 ft | 229 kts | 277° |
| 2026-05-04 06:58 | 54.43102 | 18.21880 | 6554 ft | 222 kts | 251° |
| 2026-05-04 06:58 | 54.42372 | 18.19565 | 7140 ft | 226 kts | 227° |
| 2026-05-04 06:58 | 54.41041 | 18.17962 | 7466 ft | 247 kts | 207° |
| 2026-05-04 06:58 | 54.39407 | 18.16781 | 7892 ft | 261 kts | 205° |
| 2026-05-04 06:59 | 54.37734 | 18.15610 | 8543 ft | 266 kts | 205° |
| 2026-05-04 06:59 | 54.36062 | 18.14236 | 9247 ft | 265 kts | 218° |
| 2026-05-04 06:59 | 54.34813 | 18.11977 | 9899 ft | 265 kts | 240° |
| 2026-05-04 06:59 | 54.34078 | 18.09086 | 10434 ft | 273 kts | 249° |
| 2026-05-04 07:01 | 54.29000 | 17.84268 | 13591 ft | 337 kts | 251° |
| 2026-05-04 07:01 | 54.28314 | 17.80408 | 14194 ft | 340 kts | 253° |
| 2026-05-04 07:02 | 54.27667 | 17.76512 | 14786 ft | 342 kts | 253° |
| 2026-05-04 07:02 | 54.27027 | 17.72643 | 15353 ft | 344 kts | 253° |
| 2026-05-04 07:02 | 54.26368 | 17.68653 | 15923 ft | 347 kts | 253° |
| 2026-05-04 07:02 | 54.25717 | 17.64720 | 16470 ft | 349 kts | 253° |
| 2026-05-04 07:03 | 54.25050 | 17.60701 | 17008 ft | 352 kts | 253° |
| 2026-05-04 07:03 | 54.24381 | 17.56685 | 17535 ft | 354 kts | 253° |
| 2026-05-04 07:03 | 54.23707 | 17.52646 | 18049 ft | 356 kts | 253° |
| 2026-05-04 07:03 | 54.22995 | 17.48566 | 18549 ft | 359 kts | 251° |
| 2026-05-04 07:04 | 54.22151 | 17.44588 | 19017 ft | 361 kts | 248° |
| 2026-05-04 07:04 | 54.21143 | 17.40635 | 19461 ft | 364 kts | 244° |
| 2026-05-04 07:04 | 54.20013 | 17.36724 | 19894 ft | 367 kts | 243° |
| 2026-05-04 07:04 | 54.18877 | 17.32842 | 20330 ft | 370 kts | 242° |
| 2026-05-04 07:05 | 54.17719 | 17.28887 | 20776 ft | 373 kts | 242° |
| 2026-05-04 07:05 | 54.16566 | 17.24958 | 21196 ft | 375 kts | 242° |
| 2026-05-04 07:05 | 54.15382 | 17.20929 | 21596 ft | 379 kts | 242° |
| 2026-05-04 07:05 | 54.14195 | 17.16896 | 21999 ft | 381 kts | 242° |
| 2026-05-04 07:06 | 54.11796 | 17.08774 | 22787 ft | 386 kts | 242° |
| 2026-05-04 07:06 | 54.10577 | 17.04680 | 23163 ft | 389 kts | 241° |
| 2026-05-04 07:06 | 54.09238 | 17.00621 | 23536 ft | 391 kts | 238° |
| 2026-05-04 07:07 | 54.07792 | 16.96726 | 23905 ft | 393 kts | 236° |
| 2026-05-04 07:08 | 53.97185 | 16.68948 | 26164 ft | 408 kts | 236° |
| 2026-05-04 07:09 | 53.95623 | 16.64882 | 26468 ft | 410 kts | 237° |
| 2026-05-04 07:09 | 53.94059 | 16.60821 | 26771 ft | 412 kts | 237° |
| 2026-05-04 07:09 | 53.92484 | 16.56737 | 27057 ft | 414 kts | 237° |
| 2026-05-04 07:09 | 53.90901 | 16.52642 | 27336 ft | 416 kts | 237° |
| 2026-05-04 07:10 | 53.89304 | 16.48528 | 27633 ft | 417 kts | 237° |
| 2026-05-04 07:10 | 53.87714 | 16.44439 | 27931 ft | 418 kts | 237° |
| 2026-05-04 07:12 | 53.76483 | 16.15709 | 30222 ft | 417 kts | 237° |
| 2026-05-04 07:12 | 53.74881 | 16.11631 | 30547 ft | 416 kts | 237° |
| 2026-05-04 07:12 | 53.73278 | 16.07559 | 30861 ft | 415 kts | 236° |
| 2026-05-04 07:12 | 53.71694 | 16.03542 | 31185 ft | 414 kts | 236° |
| 2026-05-04 07:13 | 53.70089 | 15.99480 | 31501 ft | 413 kts | 236° |
| 2026-05-04 07:13 | 53.68504 | 15.95473 | 31812 ft | 412 kts | 236° |
| 2026-05-04 07:13 | 53.66916 | 15.91467 | 32113 ft | 411 kts | 236° |
| 2026-05-04 07:14 | 53.60570 | 15.75520 | 32966 ft | 414 kts | 236° |
| 2026-05-04 07:14 | 53.58965 | 15.71506 | 33167 ft | 415 kts | 236° |
| 2026-05-04 07:15 | 53.57359 | 15.67490 | 33388 ft | 415 kts | 236° |
| 2026-05-04 07:15 | 53.55736 | 15.63434 | 33596 ft | 415 kts | 236° |
| 2026-05-04 07:15 | 53.54138 | 15.59442 | 33780 ft | 416 kts | 236° |
| 2026-05-04 07:15 | 53.52502 | 15.55384 | 33890 ft | 418 kts | 235° |
| 2026-05-04 07:16 | 53.48969 | 15.47720 | 33898 ft | 418 kts | 231° |
| 2026-05-04 07:16 | 53.45263 | 15.40216 | 33900 ft | 418 kts | 231° |
| 2026-05-04 07:17 | 53.41568 | 15.32748 | 33901 ft | 418 kts | 230° |
| 2026-05-04 07:17 | 53.37866 | 15.25291 | 33902 ft | 418 kts | 230° |
| 2026-05-04 07:18 | 53.34148 | 15.17825 | 33907 ft | 418 kts | 230° |
| 2026-05-04 07:18 | 53.30425 | 15.10374 | 33912 ft | 418 kts | 230° |
| 2026-05-04 07:19 | 53.26691 | 15.02920 | 33918 ft | 418 kts | 230° |
| 2026-05-04 07:19 | 53.22977 | 14.95530 | 33923 ft | 418 kts | 230° |
| 2026-05-04 07:20 | 53.19242 | 14.88121 | 33925 ft | 418 kts | 230° |
| 2026-05-04 07:20 | 53.15520 | 14.80757 | 33926 ft | 418 kts | 230° |
| 2026-05-04 07:22 | 53.00516 | 14.51295 | 33927 ft | 418 kts | 230° |
| 2026-05-04 07:23 | 52.96761 | 14.43972 | 33927 ft | 418 kts | 230° |
| 2026-05-04 07:23 | 52.93011 | 14.36683 | 33927 ft | 418 kts | 230° |
| 2026-05-04 07:24 | 52.89230 | 14.29364 | 33927 ft | 418 kts | 229° |
| 2026-05-04 07:24 | 52.85428 | 14.22080 | 33927 ft | 419 kts | 229° |
| 2026-05-04 07:26 | 52.70212 | 13.93133 | 33933 ft | 417 kts | 229° |
| 2026-05-04 07:27 | 52.66388 | 13.85908 | 33939 ft | 418 kts | 229° |
| 2026-05-04 07:27 | 52.62577 | 13.78731 | 33945 ft | 418 kts | 229° |
| 2026-05-04 07:28 | 52.58740 | 13.71522 | 33950 ft | 418 kts | 229° |
| 2026-05-04 07:28 | 52.54917 | 13.64361 | 33952 ft | 418 kts | 229° |
| 2026-05-04 07:29 | 52.51078 | 13.57189 | 33953 ft | 418 kts | 229° |
| 2026-05-04 07:29 | 52.47230 | 13.50022 | 33953 ft | 417 kts | 229° |
| 2026-05-04 07:30 | 52.43391 | 13.42892 | 33954 ft | 417 kts | 229° |
| 2026-05-04 07:30 | 52.39560 | 13.35796 | 33953 ft | 417 kts | 229° |
| 2026-05-04 07:31 | 52.35726 | 13.28717 | 33954 ft | 416 kts | 227° |
| 2026-05-04 07:33 | 52.20304 | 13.00435 | 33964 ft | 414 kts | 227° |
| 2026-05-04 07:33 | 52.16473 | 12.93457 | 33970 ft | 413 kts | 227° |
| 2026-05-04 07:34 | 52.12638 | 12.86493 | 33976 ft | 413 kts | 227° |
| 2026-05-04 07:34 | 52.08813 | 12.79567 | 33979 ft | 412 kts | 227° |
| 2026-05-04 07:35 | 52.04979 | 12.72643 | 33981 ft | 411 kts | 227° |
| 2026-05-04 07:35 | 52.01111 | 12.65676 | 33981 ft | 411 kts | 227° |
| 2026-05-04 07:36 | 51.97298 | 12.58827 | 33981 ft | 413 kts | 227° |
| 2026-05-04 07:38 | 51.80994 | 12.32544 | 33982 ft | 411 kts | 221° |
| 2026-05-04 07:38 | 51.76735 | 12.26304 | 33982 ft | 410 kts | 221° |
| 2026-05-04 07:39 | 51.72495 | 12.20115 | 33981 ft | 410 kts | 221° |
| 2026-05-04 07:39 | 51.68244 | 12.13931 | 33981 ft | 410 kts | 221° |
| 2026-05-04 07:40 | 51.64178 | 12.07469 | 33982 ft | 410 kts | 226° |
| 2026-05-04 07:40 | 51.60548 | 12.00396 | 33985 ft | 411 kts | 232° |
| 2026-05-04 07:41 | 51.57342 | 11.92788 | 33991 ft | 411 kts | 235° |
| 2026-05-04 07:41 | 51.54214 | 11.85104 | 33996 ft | 411 kts | 235° |
| 2026-05-04 07:42 | 51.51083 | 11.77423 | 34001 ft | 411 kts | 235° |
| 2026-05-04 07:42 | 51.47930 | 11.69706 | 34005 ft | 411 kts | 235° |
| 2026-05-04 07:43 | 51.44784 | 11.62030 | 34007 ft | 411 kts | 235° |
| 2026-05-04 07:43 | 51.41621 | 11.54412 | 34007 ft | 411 kts | 233° |
| 2026-05-04 07:44 | 51.38090 | 11.47222 | 34008 ft | 409 kts | 227° |
| 2026-05-04 07:44 | 51.34132 | 11.40702 | 34008 ft | 409 kts | 222° |
| 2026-05-04 07:45 | 51.29848 | 11.34661 | 34008 ft | 408 kts | 220° |
| 2026-05-04 07:45 | 51.25556 | 11.28640 | 34008 ft | 408 kts | 220° |
| 2026-05-04 07:46 | 51.21252 | 11.22641 | 34008 ft | 408 kts | 220° |
| 2026-05-04 07:46 | 51.17020 | 11.16429 | 34007 ft | 409 kts | 224° |
| 2026-05-04 07:47 | 51.13228 | 11.09571 | 34007 ft | 410 kts | 230° |
| 2026-05-04 07:49 | 51.01508 | 10.77660 | 29687 ft | 419 kts | 239° |
| 2026-05-04 07:49 | 51.00091 | 10.73519 | 28985 ft | 417 kts | 240° |
| 2026-05-04 07:49 | 50.98710 | 10.69494 | 28481 ft | 412 kts | 240° |
| 2026-05-04 07:50 | 50.97332 | 10.65481 | 27974 ft | 406 kts | 240° |
| 2026-05-04 07:50 | 50.95981 | 10.61553 | 27473 ft | 401 kts | 240° |
| 2026-05-04 07:50 | 50.94631 | 10.57636 | 26969 ft | 396 kts | 240° |
| 2026-05-04 07:50 | 50.93300 | 10.53781 | 26467 ft | 391 kts | 240° |
| 2026-05-04 07:51 | 50.91981 | 10.49966 | 25971 ft | 387 kts | 240° |
| 2026-05-04 07:51 | 50.90509 | 10.46422 | 25463 ft | 381 kts | 230° |
| 2026-05-04 07:51 | 50.88606 | 10.43542 | 24967 ft | 377 kts | 218° |
| 2026-05-04 07:51 | 50.86338 | 10.41396 | 24418 ft | 377 kts | 206° |
| 2026-05-04 07:52 | 50.83912 | 10.39779 | 23927 ft | 374 kts | 204° |
| 2026-05-04 07:52 | 50.81491 | 10.38244 | 23445 ft | 370 kts | 204° |
| 2026-05-04 07:52 | 50.79098 | 10.36735 | 22965 ft | 367 kts | 204° |
| 2026-05-04 07:52 | 50.76730 | 10.35239 | 22488 ft | 364 kts | 204° |
| 2026-05-04 07:53 | 50.74353 | 10.33736 | 22005 ft | 362 kts | 204° |
| 2026-05-04 07:54 | 50.61532 | 10.16995 | 18578 ft | 349 kts | 240° |
| 2026-05-04 07:55 | 50.60368 | 10.13595 | 18093 ft | 348 kts | 240° |
| 2026-05-04 07:55 | 50.59219 | 10.10255 | 17614 ft | 346 kts | 240° |
| 2026-05-04 07:55 | 50.58050 | 10.06876 | 17131 ft | 345 kts | 240° |
| 2026-05-04 07:55 | 50.56905 | 10.03583 | 16656 ft | 344 kts | 240° |
| 2026-05-04 07:56 | 50.55735 | 10.00222 | 16169 ft | 342 kts | 240° |
| 2026-05-04 07:56 | 50.54657 | 9.96844 | 15696 ft | 341 kts | 244° |
| 2026-05-04 07:56 | 50.53775 | 9.93393 | 15274 ft | 338 kts | 248° |
| 2026-05-04 07:56 | 50.53074 | 9.89869 | 14846 ft | 336 kts | 251° |
| 2026-05-04 07:57 | 50.52427 | 9.86294 | 14201 ft | 339 kts | 251° |
| 2026-05-04 07:57 | 50.51796 | 9.82770 | 13685 ft | 337 kts | 251° |
| 2026-05-04 07:57 | 50.51156 | 9.79198 | 13225 ft | 334 kts | 251° |
| 2026-05-04 07:57 | 50.50518 | 9.75664 | 12762 ft | 331 kts | 251° |
| 2026-05-04 07:58 | 50.49895 | 9.72167 | 12284 ft | 329 kts | 251° |
| 2026-05-04 07:58 | 50.49298 | 9.68694 | 11820 ft | 326 kts | 251° |
| 2026-05-04 07:58 | 50.48701 | 9.65211 | 11304 ft | 325 kts | 252° |
| 2026-05-04 07:58 | 50.48111 | 9.61841 | 11028 ft | 316 kts | 249° |
| 2026-05-04 07:59 | 50.47107 | 9.58837 | 11005 ft | 300 kts | 229° |
| 2026-05-04 07:59 | 50.45547 | 9.56710 | 10943 ft | 294 kts | 211° |
| 2026-05-04 07:59 | 50.43749 | 9.55227 | 10532 ft | 294 kts | 207° |
| 2026-05-04 07:59 | 50.41894 | 9.53805 | 10018 ft | 295 kts | 207° |
| 2026-05-04 08:00 | 50.40022 | 9.52375 | 9578 ft | 294 kts | 207° |
| 2026-05-04 08:00 | 50.38182 | 9.50963 | 9159 ft | 292 kts | 207° |
| 2026-05-04 08:00 | 50.36340 | 9.49543 | 8720 ft | 291 kts | 208° |
| 2026-05-04 08:02 | 50.24445 | 9.38031 | 7052 ft | 287 kts | 245° |
| 2026-05-04 08:02 | 50.23709 | 9.35039 | 6930 ft | 288 kts | 249° |
| 2026-05-04 08:02 | 50.23040 | 9.32063 | 6805 ft | 287 kts | 249° |
| 2026-05-04 08:03 | 50.22372 | 9.29094 | 6678 ft | 286 kts | 249° |
| 2026-05-04 08:03 | 50.21693 | 9.26119 | 6550 ft | 286 kts | 249° |
| 2026-05-04 08:03 | 50.21017 | 9.23178 | 6424 ft | 286 kts | 249° |
| 2026-05-04 08:03 | 50.20329 | 9.20196 | 6296 ft | 285 kts | 249° |
| 2026-05-04 08:04 | 50.19649 | 9.17258 | 6170 ft | 285 kts | 249° |
| 2026-05-04 08:04 | 50.18959 | 9.14288 | 6041 ft | 285 kts | 249° |
| 2026-05-04 08:04 | 50.18275 | 9.11342 | 5910 ft | 278 kts | 249° |
| 2026-05-04 08:04 | 50.17626 | 9.08554 | 5784 ft | 268 kts | 249° |
| 2026-05-04 08:05 | 50.16988 | 9.05824 | 5653 ft | 257 kts | 249° |
| 2026-05-04 08:05 | 50.16380 | 9.03227 | 5524 ft | 248 kts | 249° |
| 2026-05-04 08:05 | 50.15792 | 9.00718 | 5395 ft | 239 kts | 249° |
| 2026-05-04 08:05 | 50.15227 | 8.98313 | 5266 ft | 231 kts | 249° |
| 2026-05-04 08:06 | 50.14686 | 8.96009 | 5137 ft | 222 kts | 249° |
| 2026-05-04 08:06 | 50.14155 | 8.93749 | 5009 ft | 217 kts | 249° |
| 2026-05-04 08:06 | 50.13641 | 8.91559 | 4983 ft | 207 kts | 249° |
| 2026-05-04 08:06 | 50.13149 | 8.89465 | 5036 ft | 197 kts | 249° |
| 2026-05-04 08:08 | 50.10182 | 8.76545 | 3653 ft | 173 kts | 249° |
| 2026-05-04 08:08 | 50.09752 | 8.74780 | 3408 ft | 173 kts | 249° |
| 2026-05-04 08:10 | 50.06542 | 8.61535 | 1546 ft | 149 kts | 250° |
| 2026-05-04 08:11 | 50.06171 | 8.59996 | 1335 ft | 149 kts | 250° |
| 2026-05-04 08:11 | 50.05442 | 8.56963 | 912 ft | 150 kts | 250° |
| 2026-05-04 08:11 | 50.05071 | 8.55417 | 697 ft | 150 kts | 250° |
| 2026-05-04 08:12 | 50.04695 | 8.53860 | 477 ft | 150 kts | 250° |
| 2026-05-04 08:12 | 50.04339 | 8.52360 | 364 ft | 139 kts | 250° |
| 2026-05-04 08:12 | 50.04076 | 8.51258 | 363 ft | 65 kts | 250° |
| 2026-05-04 08:12 | 50.03981 | 8.50853 | 363 ft | 32 kts | 250° |
| 2026-05-04 08:13 | 50.03904 | 8.50535 | 363 ft | 29 kts | 248° |
| 2026-05-04 08:13 | 50.03782 | 8.50302 | 363 ft | 25 kts | 221° |
| 2026-05-04 08:13 | 50.03708 | 8.50209 | 363 ft | 3 kts | 219° |
| 2026-05-04 08:13 | 50.03702 | 8.50202 | 363 ft | 0 kts | 219° |
| 2026-05-04 08:14 | 50.03700 | 8.50200 | 363 ft | 0 kts | 219° |
| 2026-05-04 08:14 | 50.03693 | 8.50191 | 363 ft | 1 kts | 219° |
| 2026-05-04 08:14 | 50.03681 | 8.50182 | 363 ft | 2 kts | 195° |
| 2026-05-04 08:16 | 50.03803 | 8.51020 | 363 ft | 25 kts | 70° |
| 2026-05-04 08:16 | 50.03862 | 8.51270 | 363 ft | 23 kts | 70° |
| 2026-05-04 08:16 | 50.03918 | 8.51502 | 363 ft | 22 kts | 70° |
| 2026-05-04 08:17 | 50.03972 | 8.51730 | 363 ft | 22 kts | 70° |
| 2026-05-04 08:17 | 50.04028 | 8.51965 | 363 ft | 24 kts | 70° |
| 2026-05-04 08:17 | 50.04089 | 8.52215 | 363 ft | 23 kts | 69° |
| 2026-05-04 08:17 | 50.04144 | 8.52448 | 363 ft | 22 kts | 70° |
| 2026-05-04 08:19 | 50.04435 | 8.54142 | 363 ft | 23 kts | 84° |
| 2026-05-04 08:19 | 50.04449 | 8.54384 | 363 ft | 18 kts | 88° |
| 2026-05-04 08:20 | 50.04432 | 8.54568 | 363 ft | 16 kts | 116° |
| 2026-05-04 08:20 | 50.04367 | 8.54714 | 363 ft | 16 kts | 139° |
| 2026-05-04 08:20 | 50.04266 | 8.54798 | 363 ft | 15 kts | 159° |
| 2026-05-04 08:20 | 50.04171 | 8.54851 | 363 ft | 11 kts | 161° |
| 2026-05-04 08:21 | 50.04092 | 8.54901 | 363 ft | 12 kts | 160° |
| 2026-05-04 08:21 | 50.04005 | 8.54944 | 363 ft | 13 kts | 161° |
| 2026-05-04 08:21 | 50.03907 | 8.55004 | 363 ft | 14 kts | 160° |
| 2026-05-04 08:21 | 50.03850 | 8.55064 | 363 ft | 9 kts | 111° |
| 2026-05-04 08:22 | 50.03860 | 8.55170 | 363 ft | 10 kts | 70° |
| 2026-05-04 08:22 | 50.03898 | 8.55327 | 363 ft | 20 kts | 70° |
| 2026-05-04 08:24 | 50.04306 | 8.57038 | 363 ft | 25 kts | 70° |
| 2026-05-04 08:24 | 50.04367 | 8.57291 | 363 ft | 24 kts | 70° |
| 2026-05-04 08:24 | 50.04425 | 8.57533 | 363 ft | 22 kts | 70° |
| 2026-05-04 08:24 | 50.04479 | 8.57757 | 363 ft | 21 kts | 70° |
| 2026-05-04 08:25 | 50.04531 | 8.57974 | 363 ft | 20 kts | 70° |
| 2026-05-04 08:25 | 50.04579 | 8.58179 | 363 ft | 19 kts | 70° |
| 2026-05-04 08:25 | 50.04626 | 8.58377 | 363 ft | 18 kts | 70° |
| 2026-05-04 08:25 | 50.04673 | 8.58567 | 363 ft | 18 kts | 69° |
| 2026-05-04 08:26 | 50.04719 | 8.58746 | 363 ft | 17 kts | 67° |
| 2026-05-04 08:27 | 50.04850 | 8.58898 | 363 ft | 0 kts | 341° |